sensor_id;sensor_type;location;lat;lon;timestamp;pressure;altitude;pressure_sealevel;temperature;humidity
13974;BME280;7060;43.770;4.008;2023-10-19T00:00:14;99603.16;;;16.92;87.40
13974;BME280;7060;43.770;4.008;2023-10-19T00:02:50;99649.53;;;17.27;87.66
13974;BME280;7060;43.770;4.008;2023-10-19T00:05:22;99652.22;;;17.27;87.67
13974;BME280;7060;43.770;4.008;2023-10-19T00:07:55;99641.63;;;17.26;87.75
13974;BME280;7060;43.770;4.008;2023-10-19T00:10:24;99630.84;;;17.26;88.24
13974;BME280;7060;43.770;4.008;2023-10-19T00:12:58;99629.41;;;17.23;88.26
13974;BME280;7060;43.770;4.008;2023-10-19T00:15:27;99621.50;;;17.22;88.56
13974;BME280;7060;43.770;4.008;2023-10-19T00:17:59;99620.69;;;17.21;88.78
13974;BME280;7060;43.770;4.008;2023-10-19T00:20:33;99620.47;;;17.23;88.78
13974;BME280;7060;43.770;4.008;2023-10-19T00:23:18;99617.16;;;17.21;89.17
13974;BME280;7060;43.770;4.008;2023-10-19T00:25:52;99617.97;;;17.21;89.05
13974;BME280;7060;43.770;4.008;2023-10-19T00:28:22;99619.41;;;17.24;89.26
13974;BME280;7060;43.770;4.008;2023-10-19T00:30:53;99614.63;;;17.26;89.24
13974;BME280;7060;43.770;4.008;2023-10-19T00:33:27;99602.16;;;17.25;88.96
13974;BME280;7060;43.770;4.008;2023-10-19T00:35:59;99600.28;;;17.25;89.33
13974;BME280;7060;43.770;4.008;2023-10-19T00:38:38;99534.69;;;16.80;89.30
13974;BME280;7060;43.770;4.008;2023-10-19T00:41:19;99606.97;;;17.23;89.60
13974;BME280;7060;43.770;4.008;2023-10-19T00:43:49;99615.06;;;17.23;89.70
13974;BME280;7060;43.770;4.008;2023-10-19T00:46:25;99606.13;;;17.22;89.91
13974;BME280;7060;43.770;4.008;2023-10-19T00:49:01;99612.75;;;17.26;90.00
13974;BME280;7060;43.770;4.008;2023-10-19T00:51:35;99601.78;;;17.21;89.87
13974;BME280;7060;43.770;4.008;2023-10-19T00:54:22;99608.59;;;17.31;89.95
13974;BME280;7060;43.770;4.008;2023-10-19T00:57:00;99602.97;;;17.32;90.11
13974;BME280;7060;43.770;4.008;2023-10-19T00:59:34;99587.22;;;17.22;90.04
13974;BME280;7060;43.770;4.008;2023-10-19T01:02:06;99593.13;;;17.38;89.85
13974;BME280;7060;43.770;4.008;2023-10-19T01:04:52;99598.31;;;17.39;89.84
13974;BME280;7060;43.770;4.008;2023-10-19T01:07:24;99596.84;;;17.43;89.89
13974;BME280;7060;43.770;4.008;2023-10-19T01:10:00;99578.34;;;17.47;89.56
13974;BME280;7060;43.770;4.008;2023-10-19T01:12:31;99569.19;;;17.48;89.48
13974;BME280;7060;43.770;4.008;2023-10-19T01:15:08;99552.34;;;17.46;89.38
13974;BME280;7060;43.770;4.008;2023-10-19T01:17:45;99542.84;;;17.37;89.47
13974;BME280;7060;43.770;4.008;2023-10-19T01:20:19;99557.16;;;17.44;89.30
13974;BME280;7060;43.770;4.008;2023-10-19T01:22:52;99543.25;;;17.40;89.31
13974;BME280;7060;43.770;4.008;2023-10-19T01:25:49;99542.03;;;17.36;89.92
13974;BME280;7060;43.770;4.008;2023-10-19T01:28:28;99529.13;;;17.38;89.66
13974;BME280;7060;43.770;4.008;2023-10-19T01:31:11;99529.34;;;17.37;89.73
13974;BME280;7060;43.770;4.008;2023-10-19T01:33:45;99529.13;;;17.38;89.75
13974;BME280;7060;43.770;4.008;2023-10-19T01:36:14;99515.78;;;17.43;89.56
13974;BME280;7060;43.770;4.008;2023-10-19T01:38:44;99470.47;;;17.20;89.38
13974;BME280;7060;43.770;4.008;2023-10-19T01:41:15;99504.63;;;17.33;89.83
13974;BME280;7060;43.770;4.008;2023-10-19T01:43:47;99508.72;;;17.42;89.40
13974;BME280;7060;43.770;4.008;2023-10-19T01:46:22;99490.88;;;17.41;89.20
13974;BME280;7060;43.770;4.008;2023-10-19T01:48:53;99476.75;;;17.39;89.28
13974;BME280;7060;43.770;4.008;2023-10-19T01:51:23;99403.78;;;16.96;89.15
13974;BME280;7060;43.770;4.008;2023-10-19T01:53:54;99423.00;;;17.06;89.05
13974;BME280;7060;43.770;4.008;2023-10-19T01:56:23;99459.31;;;17.35;89.34
13974;BME280;7060;43.770;4.008;2023-10-19T01:58:53;99460.38;;;17.34;89.33
13974;BME280;7060;43.770;4.008;2023-10-19T02:01:22;99448.53;;;17.35;89.68
13974;BME280;7060;43.770;4.008;2023-10-19T02:03:59;99454.53;;;17.37;89.32
13974;BME280;7060;43.770;4.008;2023-10-19T02:06:29;99452.44;;;17.39;89.15
13974;BME280;7060;43.770;4.008;2023-10-19T02:09:06;99441.84;;;17.38;88.93
13974;BME280;7060;43.770;4.008;2023-10-19T02:11:45;99435.00;;;17.35;89.06
13974;BME280;7060;43.770;4.008;2023-10-19T02:14:16;99429.59;;;17.35;89.18
13974;BME280;7060;43.770;4.008;2023-10-19T02:16:48;99437.94;;;17.34;89.07
13974;BME280;7060;43.770;4.008;2023-10-19T02:19:21;99438.53;;;17.36;89.06
13974;BME280;7060;43.770;4.008;2023-10-19T02:21:50;99335.41;;;16.77;89.10
13974;BME280;7060;43.770;4.008;2023-10-19T02:24:21;99444.78;;;17.36;88.58
13974;BME280;7060;43.770;4.008;2023-10-19T02:26:50;99419.16;;;17.20;88.61
13974;BME280;7060;43.770;4.008;2023-10-19T02:29:19;99415.41;;;17.21;88.69
13974;BME280;7060;43.770;4.008;2023-10-19T02:31:49;99428.44;;;17.31;88.80
13974;BME280;7060;43.770;4.008;2023-10-19T02:34:18;99425.72;;;17.31;88.74
13974;BME280;7060;43.770;4.008;2023-10-19T02:36:46;99415.97;;;17.30;88.61
13974;BME280;7060;43.770;4.008;2023-10-19T02:39:16;99391.59;;;17.12;88.57
13974;BME280;7060;43.770;4.008;2023-10-19T02:41:47;99402.91;;;17.27;88.18
13974;BME280;7060;43.770;4.008;2023-10-19T02:44:18;99401.25;;;17.26;88.24
13974;BME280;7060;43.770;4.008;2023-10-19T02:46:50;99396.72;;;17.20;88.42
13974;BME280;7060;43.770;4.008;2023-10-19T02:49:21;99390.72;;;17.18;88.34
13974;BME280;7060;43.770;4.008;2023-10-19T02:51:51;99388.63;;;17.20;88.40
13974;BME280;7060;43.770;4.008;2023-10-19T02:54:21;99389.66;;;17.19;88.56
13974;BME280;7060;43.770;4.008;2023-10-19T02:56:54;99383.22;;;17.20;88.27
13974;BME280;7060;43.770;4.008;2023-10-19T02:59:27;99382.16;;;17.21;88.37
13974;BME280;7060;43.770;4.008;2023-10-19T03:01:58;99376.16;;;17.19;88.37
13974;BME280;7060;43.770;4.008;2023-10-19T03:04:29;99376.81;;;17.14;88.33
13974;BME280;7060;43.770;4.008;2023-10-19T03:06:59;99375.16;;;17.13;88.22
13974;BME280;7060;43.770;4.008;2023-10-19T08:13:34;99082.25;;;20.00;96.69
13974;BME280;7060;43.770;4.008;2023-10-19T08:16:03;99084.78;;;20.06;96.14
13974;BME280;7060;43.770;4.008;2023-10-19T08:18:34;98999.19;;;19.60;95.35
13974;BME280;7060;43.770;4.008;2023-10-19T08:21:03;99091.56;;;20.20;95.22
13974;BME280;7060;43.770;4.008;2023-10-19T08:23:32;98999.59;;;19.69;95.03
13974;BME280;7060;43.770;4.008;2023-10-19T08:26:03;99094.44;;;20.31;94.55
13974;BME280;7060;43.770;4.008;2023-10-19T08:28:34;99092.03;;;20.34;94.30
13974;BME280;7060;43.770;4.008;2023-10-19T08:31:08;99075.38;;;20.25;94.01
13974;BME280;7060;43.770;4.008;2023-10-19T08:33:38;99068.94;;;20.15;93.37
13974;BME280;7060;43.770;4.008;2023-10-19T08:36:17;99097.53;;;20.39;93.15
13974;BME280;7060;43.770;4.008;2023-10-19T08:38:47;99099.44;;;20.39;93.17
13974;BME280;7060;43.770;4.008;2023-10-19T08:41:15;99102.13;;;20.39;92.57
13974;BME280;7060;43.770;4.008;2023-10-19T08:43:47;99108.72;;;20.43;92.12
13974;BME280;7060;43.770;4.008;2023-10-19T08:46:16;99104.13;;;20.43;92.04
13974;BME280;7060;43.770;4.008;2023-10-19T08:48:45;99046.63;;;20.13;91.75
13974;BME280;7060;43.770;4.008;2023-10-19T08:51:14;99094.06;;;20.44;90.93
13974;BME280;7060;43.770;4.008;2023-10-19T08:53:45;99084.28;;;20.43;91.20
13974;BME280;7060;43.770;4.008;2023-10-19T08:56:15;99085.13;;;20.43;90.61
13974;BME280;7060;43.770;4.008;2023-10-19T08:58:46;99074.00;;;20.45;90.26
13974;BME280;7060;43.770;4.008;2023-10-19T09:01:18;99060.34;;;20.40;89.40
13974;BME280;7060;43.770;4.008;2023-10-19T09:03:47;99062.91;;;20.46;89.34
13974;BME280;7060;43.770;4.008;2023-10-19T09:06:15;98986.88;;;20.08;88.72
13974;BME280;7060;43.770;4.008;2023-10-19T09:08:47;99049.66;;;20.50;88.20
13974;BME280;7060;43.770;4.008;2023-10-19T09:11:16;99064.94;;;20.56;88.17
13974;BME280;7060;43.770;4.008;2023-10-19T09:13:51;99061.47;;;20.60;88.17
13974;BME280;7060;43.770;4.008;2023-10-19T09:16:20;99066.91;;;20.60;87.13
13974;BME280;7060;43.770;4.008;2023-10-19T09:18:50;99058.22;;;20.63;86.81
13974;BME280;7060;43.770;4.008;2023-10-19T09:21:20;99065.88;;;20.67;86.67
13974;BME280;7060;43.770;4.008;2023-10-19T09:23:56;99083.00;;;20.67;87.18
13974;BME280;7060;43.770;4.008;2023-10-19T09:26:26;99089.25;;;20.68;86.90
13974;BME280;7060;43.770;4.008;2023-10-19T09:28:57;99092.78;;;20.68;86.58
13974;BME280;7060;43.770;4.008;2023-10-19T09:31:27;99078.97;;;20.70;86.53
13974;BME280;7060;43.770;4.008;2023-10-19T09:33:56;99004.88;;;20.31;86.47
13974;BME280;7060;43.770;4.008;2023-10-19T09:36:27;99079.34;;;20.78;86.63
13974;BME280;7060;43.770;4.008;2023-10-19T09:38:57;99085.91;;;20.82;86.22
13974;BME280;7060;43.770;4.008;2023-10-19T09:41:26;99096.56;;;20.89;86.06
13974;BME280;7060;43.770;4.008;2023-10-19T09:44:04;99102.16;;;20.99;85.93
13974;BME280;7060;43.770;4.008;2023-10-19T09:46:39;99099.53;;;21.04;85.33
13974;BME280;7060;43.770;4.008;2023-10-19T09:49:09;99121.66;;;21.13;84.68
13974;BME280;7060;43.770;4.008;2023-10-19T09:51:43;99101.09;;;21.22;84.12
13974;BME280;7060;43.770;4.008;2023-10-19T09:54:41;99090.34;;;21.32;84.14
13974;BME280;7060;43.770;4.008;2023-10-19T09:57:19;99082.81;;;21.44;84.13
13974;BME280;7060;43.770;4.008;2023-10-19T10:00:02;99093.31;;;21.57;83.15
13974;BME280;7060;43.770;4.008;2023-10-19T10:02:38;99026.31;;;21.19;81.02
13974;BME280;7060;43.770;4.008;2023-10-19T10:08:32;99068.88;;;21.62;77.11
13974;BME280;7060;43.770;4.008;2023-10-19T10:11:17;99033.31;;;21.37;76.25
13974;BME280;7060;43.770;4.008;2023-10-19T10:13:47;99029.59;;;21.48;75.94
13974;BME280;7060;43.770;4.008;2023-10-19T10:16:22;99029.06;;;21.51;74.42
13974;BME280;7060;43.770;4.008;2023-10-19T10:18:55;99035.94;;;21.59;74.12
13974;BME280;7060;43.770;4.008;2023-10-19T10:21:26;99029.69;;;21.58;73.79
13974;BME280;7060;43.770;4.008;2023-10-19T10:23:57;99029.13;;;21.56;72.55
13974;BME280;7060;43.770;4.008;2023-10-19T10:26:28;99000.69;;;21.37;72.60
13974;BME280;7060;43.770;4.008;2023-10-19T10:29:10;99030.81;;;21.62;72.23
13974;BME280;7060;43.770;4.008;2023-10-19T10:31:44;99019.94;;;21.62;72.72
13974;BME280;7060;43.770;4.008;2023-10-19T10:34:43;99006.59;;;21.61;71.74
13974;BME280;7060;43.770;4.008;2023-10-19T10:37:13;98997.25;;;21.52;71.62
13974;BME280;7060;43.770;4.008;2023-10-19T10:42:12;99009.25;;;21.56;71.20
13974;BME280;7060;43.770;4.008;2023-10-19T10:44:42;98929.28;;;21.15;70.84
13974;BME280;7060;43.770;4.008;2023-10-19T10:47:17;98926.16;;;21.01;70.61
13974;BME280;7060;43.770;4.008;2023-10-19T10:49:50;98997.78;;;21.49;70.86
13974;BME280;7060;43.770;4.008;2023-10-19T10:52:24;98989.88;;;21.47;70.92
13974;BME280;7060;43.770;4.008;2023-10-19T10:54:53;98937.84;;;21.02;71.00
13974;BME280;7060;43.770;4.008;2023-10-19T10:57:22;98946.56;;;21.04;71.22
13974;BME280;7060;43.770;4.008;2023-10-19T11:00:11;98958.94;;;21.21;70.88
13974;BME280;7060;43.770;4.008;2023-10-19T11:02:46;98971.03;;;21.36;71.02
13974;BME280;7060;43.770;4.008;2023-10-19T11:05:17;98957.13;;;21.32;70.66
13974;BME280;7060;43.770;4.008;2023-10-19T11:08:06;98963.09;;;21.29;70.39
13974;BME280;7060;43.770;4.008;2023-10-19T11:10:37;98968.78;;;21.27;70.40
13974;BME280;7060;43.770;4.008;2023-10-19T11:13:07;98972.31;;;21.28;69.86
13974;BME280;7060;43.770;4.008;2023-10-19T11:15:37;98969.84;;;21.26;70.14
13974;BME280;7060;43.770;4.008;2023-10-19T11:18:07;98958.16;;;21.26;69.71
13974;BME280;7060;43.770;4.008;2023-10-19T11:20:36;98952.44;;;21.22;69.97
13974;BME280;7060;43.770;4.008;2023-10-19T11:23:05;98910.84;;;20.95;68.95
13974;BME280;7060;43.770;4.008;2023-10-19T11:25:34;98943.97;;;21.19;69.40
13974;BME280;7060;43.770;4.008;2023-10-19T11:28:16;98942.63;;;21.21;69.36
13974;BME280;7060;43.770;4.008;2023-10-19T11:30:46;98933.09;;;21.19;69.38
13974;BME280;7060;43.770;4.008;2023-10-19T11:33:17;98923.03;;;21.19;70.14
13974;BME280;7060;43.770;4.008;2023-10-19T11:35:51;98880.19;;;21.00;70.17
13974;BME280;7060;43.770;4.008;2023-10-19T11:38:20;98822.81;;;20.64;70.44
13974;BME280;7060;43.770;4.008;2023-10-19T11:40:50;98849.13;;;20.90;70.43
13974;BME280;7060;43.770;4.008;2023-10-19T11:43:20;98875.19;;;21.13;70.50
13974;BME280;7060;43.770;4.008;2023-10-19T11:45:49;98802.59;;;20.77;70.07
13974;BME280;7060;43.770;4.008;2023-10-19T11:48:20;98838.81;;;21.19;69.97
13974;BME280;7060;43.770;4.008;2023-10-19T11:50:49;98850.75;;;21.18;69.94
13974;BME280;7060;43.770;4.008;2023-10-19T11:53:18;98858.63;;;21.20;69.86
13974;BME280;7060;43.770;4.008;2023-10-19T11:55:47;98852.94;;;21.21;69.15
13974;BME280;7060;43.770;4.008;2023-10-19T11:58:17;98826.91;;;21.25;69.12
13974;BME280;7060;43.770;4.008;2023-10-19T12:00:46;98817.41;;;21.28;68.86
13974;BME280;7060;43.770;4.008;2023-10-19T12:03:14;98819.03;;;21.29;68.63
13974;BME280;7060;43.770;4.008;2023-10-19T12:05:45;98808.75;;;21.36;68.25
13974;BME280;7060;43.770;4.008;2023-10-19T12:08:14;98797.88;;;21.36;67.73
13974;BME280;7060;43.770;4.008;2023-10-19T12:10:43;98806.91;;;21.42;68.26
13974;BME280;7060;43.770;4.008;2023-10-19T12:13:12;98803.38;;;21.46;68.20
13974;BME280;7060;43.770;4.008;2023-10-19T12:15:40;98828.94;;;21.50;67.96
13974;BME280;7060;43.770;4.008;2023-10-19T12:18:19;98842.53;;;21.50;67.53
13974;BME280;7060;43.770;4.008;2023-10-19T12:20:50;98857.22;;;21.49;67.38
13974;BME280;7060;43.770;4.008;2023-10-19T12:23:23;98857.75;;;21.46;67.57
13974;BME280;7060;43.770;4.008;2023-10-19T12:25:52;98851.75;;;21.44;67.54
13974;BME280;7060;43.770;4.008;2023-10-19T12:28:24;98835.44;;;21.44;67.31
13974;BME280;7060;43.770;4.008;2023-10-19T12:30:53;98821.31;;;21.47;67.60
13974;BME280;7060;43.770;4.008;2023-10-19T12:33:23;98826.50;;;21.49;67.38
13974;BME280;7060;43.770;4.008;2023-10-19T12:35:55;98822.44;;;21.51;67.25
13974;BME280;7060;43.770;4.008;2023-10-19T12:38:25;98798.53;;;21.58;67.23
13974;BME280;7060;43.770;4.008;2023-10-19T12:40:54;98788.00;;;21.72;67.69
13974;BME280;7060;43.770;4.008;2023-10-19T12:43:23;98787.00;;;21.83;67.22
13974;BME280;7060;43.770;4.008;2023-10-19T12:45:52;98790.03;;;21.97;66.82
13974;BME280;7060;43.770;4.008;2023-10-19T12:48:22;98777.00;;;22.09;66.08
13974;BME280;7060;43.770;4.008;2023-10-19T12:50:59;98775.41;;;22.23;65.38
13974;BME280;7060;43.770;4.008;2023-10-19T12:53:30;98771.31;;;22.31;65.21
13974;BME280;7060;43.770;4.008;2023-10-19T12:56:03;98768.09;;;22.39;64.76
13974;BME280;7060;43.770;4.008;2023-10-19T12:59:05;98783.59;;;22.39;63.51
13974;BME280;7060;43.770;4.008;2023-10-19T13:02:03;98776.25;;;22.34;63.41
13974;BME280;7060;43.770;4.008;2023-10-19T13:05:05;98764.25;;;22.35;62.88
13974;BME280;7060;43.770;4.008;2023-10-19T13:07:43;98751.47;;;22.41;62.97
13974;BME280;7060;43.770;4.008;2023-10-19T13:10:12;98744.41;;;22.45;62.92
13974;BME280;7060;43.770;4.008;2023-10-19T13:12:41;98752.03;;;22.43;61.99
13974;BME280;7060;43.770;4.008;2023-10-19T13:15:10;98746.59;;;22.48;62.74
13974;BME280;7060;43.770;4.008;2023-10-19T13:17:41;98734.06;;;22.42;62.95
13974;BME280;7060;43.770;4.008;2023-10-19T13:20:11;98743.88;;;22.48;62.49
13974;BME280;7060;43.770;4.008;2023-10-19T13:22:47;98751.50;;;22.46;62.72
13974;BME280;7060;43.770;4.008;2023-10-19T13:25:16;98754.47;;;22.44;62.56
13974;BME280;7060;43.770;4.008;2023-10-19T13:27:45;98759.94;;;22.44;62.18
13974;BME280;7060;43.770;4.008;2023-10-19T13:30:14;98757.75;;;22.41;61.76
13974;BME280;7060;43.770;4.008;2023-10-19T13:32:43;98731.31;;;22.32;62.07
13974;BME280;7060;43.770;4.008;2023-10-19T13:35:13;98731.88;;;22.34;62.15
13974;BME280;7060;43.770;4.008;2023-10-19T13:37:42;98733.25;;;22.46;62.51
13974;BME280;7060;43.770;4.008;2023-10-19T13:40:13;98742.22;;;22.47;61.83
13974;BME280;7060;43.770;4.008;2023-10-19T13:42:41;98738.97;;;22.45;62.62
13974;BME280;7060;43.770;4.008;2023-10-19T13:45:14;98745.22;;;22.45;62.90
13974;BME280;7060;43.770;4.008;2023-10-19T13:47:43;98745.50;;;22.44;62.88
13974;BME280;7060;43.770;4.008;2023-10-19T13:50:11;98731.59;;;22.40;62.71
13974;BME280;7060;43.770;4.008;2023-10-19T13:52:40;98704.38;;;22.20;63.24
13974;BME280;7060;43.770;4.008;2023-10-19T13:55:09;98699.19;;;22.13;63.35
13974;BME280;7060;43.770;4.008;2023-10-19T13:57:41;98671.41;;;22.01;62.61
13974;BME280;7060;43.770;4.008;2023-10-19T14:00:11;98734.84;;;22.32;63.29
13974;BME280;7060;43.770;4.008;2023-10-19T14:02:47;98744.38;;;22.35;63.44
13974;BME280;7060;43.770;4.008;2023-10-19T14:05:18;98724.78;;;22.17;63.42
13974;BME280;7060;43.770;4.008;2023-10-19T14:07:47;98732.69;;;22.24;63.04
13974;BME280;7060;43.770;4.008;2023-10-19T14:10:18;98738.13;;;22.24;63.60
13974;BME280;7060;43.770;4.008;2023-10-19T14:12:50;98730.50;;;22.16;63.95
13974;BME280;7060;43.770;4.008;2023-10-19T14:15:21;98728.56;;;22.11;63.97
13974;BME280;7060;43.770;4.008;2023-10-19T14:17:51;98721.22;;;22.07;63.55
13974;BME280;7060;43.770;4.008;2023-10-19T14:20:20;98708.41;;;22.02;63.93
13974;BME280;7060;43.770;4.008;2023-10-19T14:22:51;98698.06;;;21.99;64.50
13974;BME280;7060;43.770;4.008;2023-10-19T14:25:22;98697.53;;;21.97;64.70
13974;BME280;7060;43.770;4.008;2023-10-19T14:27:54;98595.66;;;21.32;64.22
13974;BME280;7060;43.770;4.008;2023-10-19T14:30:27;98691.81;;;21.88;64.59
13974;BME280;7060;43.770;4.008;2023-10-19T14:32:56;98691.53;;;21.85;64.28
13974;BME280;7060;43.770;4.008;2023-10-19T14:35:25;98611.94;;;21.27;63.93
13974;BME280;7060;43.770;4.008;2023-10-19T14:37:55;98702.13;;;21.81;64.72
13974;BME280;7060;43.770;4.008;2023-10-19T14:40:27;98677.56;;;21.61;65.01
13974;BME280;7060;43.770;4.008;2023-10-19T14:42:58;98694.72;;;21.77;65.35
13974;BME280;7060;43.770;4.008;2023-10-19T14:45:28;98696.34;;;21.73;65.41
13974;BME280;7060;43.770;4.008;2023-10-19T14:47:58;98689.56;;;21.70;65.28
13974;BME280;7060;43.770;4.008;2023-10-19T14:50:30;98686.03;;;21.70;65.19
13974;BME280;7060;43.770;4.008;2023-10-19T14:52:59;98670.50;;;21.65;65.29
13974;BME280;7060;43.770;4.008;2023-10-19T14:55:27;98665.31;;;21.58;64.85
13974;BME280;7060;43.770;4.008;2023-10-19T14:57:56;98639.19;;;21.52;64.86
13974;BME280;7060;43.770;4.008;2023-10-19T15:00:28;98571.41;;;21.20;65.30
13974;BME280;7060;43.770;4.008;2023-10-19T15:03:03;98575.00;;;21.36;66.02
13974;BME280;7060;43.770;4.008;2023-10-19T15:05:36;98595.13;;;21.45;66.15
13974;BME280;7060;43.770;4.008;2023-10-19T15:08:06;98594.56;;;21.43;66.58
13974;BME280;7060;43.770;4.008;2023-10-19T15:10:40;98599.47;;;21.41;66.87
13974;BME280;7060;43.770;4.008;2023-10-19T15:13:09;98591.03;;;21.38;67.07
13974;BME280;7060;43.770;4.008;2023-10-19T15:15:40;98513.16;;;20.96;67.07
13974;BME280;7060;43.770;4.008;2023-10-19T15:18:08;98487.28;;;20.68;67.40
13974;BME280;7060;43.770;4.008;2023-10-19T15:20:38;98585.84;;;21.31;67.79
13974;BME280;7060;43.770;4.008;2023-10-19T15:23:07;98587.75;;;21.31;67.53
13974;BME280;7060;43.770;4.008;2023-10-19T15:25:36;98574.97;;;21.26;67.77
13974;BME280;7060;43.770;4.008;2023-10-19T15:28:07;98570.88;;;21.23;67.92
13974;BME280;7060;43.770;4.008;2023-10-19T15:30:40;98573.31;;;21.20;68.56
13974;BME280;7060;43.770;4.008;2023-10-19T15:33:08;98571.13;;;21.12;69.26
13974;BME280;7060;43.770;4.008;2023-10-19T15:35:37;98574.94;;;21.11;69.57
13974;BME280;7060;43.770;4.008;2023-10-19T15:38:07;98577.38;;;21.12;69.51
13974;BME280;7060;43.770;4.008;2023-10-19T15:40:35;98574.66;;;21.12;69.94
13974;BME280;7060;43.770;4.008;2023-10-19T15:43:07;98564.06;;;21.11;70.39
13974;BME280;7060;43.770;4.008;2023-10-19T15:45:40;98562.69;;;21.08;70.42
13974;BME280;7060;43.770;4.008;2023-10-19T15:48:11;98500.59;;;20.70;70.68
13974;BME280;7060;43.770;4.008;2023-10-19T15:50:40;98563.50;;;21.04;71.08
13974;BME280;7060;43.770;4.008;2023-10-19T15:53:09;98571.63;;;21.04;71.22
13974;BME280;7060;43.770;4.008;2023-10-19T15:55:38;98565.66;;;21.02;71.38
13974;BME280;7060;43.770;4.008;2023-10-19T15:58:08;98552.50;;;20.88;72.04
13974;BME280;7060;43.770;4.008;2023-10-19T16:00:39;98568.38;;;21.02;72.12
13974;BME280;7060;43.770;4.008;2023-10-19T16:03:08;98328.81;;;19.54;72.29
13974;BME280;7060;43.770;4.008;2023-10-19T16:05:37;98572.41;;;20.99;72.85
13974;BME280;7060;43.770;4.008;2023-10-19T16:08:06;98566.16;;;20.99;73.10
13974;BME280;7060;43.770;4.008;2023-10-19T16:10:35;98524.69;;;20.61;73.51
13974;BME280;7060;43.770;4.008;2023-10-19T16:13:04;98596.56;;;20.95;73.96
13974;BME280;7060;43.770;4.008;2023-10-19T16:15:35;98602.25;;;20.94;73.91
13974;BME280;7060;43.770;4.008;2023-10-19T16:18:06;98609.06;;;20.96;74.05
13974;BME280;7060;43.770;4.008;2023-10-19T16:20:35;98615.84;;;20.94;74.35
13974;BME280;7060;43.770;4.008;2023-10-19T16:23:07;98601.44;;;20.93;74.65
13974;BME280;7060;43.770;4.008;2023-10-19T16:25:36;98574.47;;;20.77;75.16
13974;BME280;7060;43.770;4.008;2023-10-19T16:28:05;98613.63;;;20.91;75.50
13974;BME280;7060;43.770;4.008;2023-10-19T16:30:36;98600.63;;;20.88;75.43
13974;BME280;7060;43.770;4.008;2023-10-19T16:33:06;98562.22;;;20.69;75.57
13974;BME280;7060;43.770;4.008;2023-10-19T16:35:38;98588.13;;;20.87;75.87
13974;BME280;7060;43.770;4.008;2023-10-19T16:38:07;98566.03;;;20.73;75.85
13974;BME280;7060;43.770;4.008;2023-10-19T16:40:39;98587.81;;;20.83;76.01
13974;BME280;7060;43.770;4.008;2023-10-19T16:43:08;98582.94;;;20.85;76.09
13974;BME280;7060;43.770;4.008;2023-10-19T16:45:37;98583.47;;;20.82;75.93
13974;BME280;7060;43.770;4.008;2023-10-19T16:48:08;98579.38;;;20.80;76.19
13974;BME280;7060;43.770;4.008;2023-10-19T16:50:37;98489.97;;;20.16;76.23
13974;BME280;7060;43.770;4.008;2023-10-19T16:53:06;98584.25;;;20.78;76.03
13974;BME280;7060;43.770;4.008;2023-10-19T16:55:35;98555.69;;;20.60;76.29
13974;BME280;7060;43.770;4.008;2023-10-19T16:58:04;98508.25;;;20.25;75.97
13974;BME280;7060;43.770;4.008;2023-10-19T17:00:33;98583.72;;;20.76;76.12
13974;BME280;7060;43.770;4.008;2023-10-19T17:03:09;98571.47;;;20.73;76.38
13974;BME280;7060;43.770;4.008;2023-10-19T17:05:38;98580.16;;;20.70;76.41
13974;BME280;7060;43.770;4.008;2023-10-19T17:08:07;98547.19;;;20.51;76.63
13974;BME280;7060;43.770;4.008;2023-10-19T17:10:37;98584.47;;;20.66;77.20
13974;BME280;7060;43.770;4.008;2023-10-19T17:13:06;98579.00;;;20.61;77.18
13974;BME280;7060;43.770;4.008;2023-10-19T17:15:35;98565.41;;;20.61;77.12
13974;BME280;7060;43.770;4.008;2023-10-19T17:18:05;98573.56;;;20.61;77.33
13974;BME280;7060;43.770;4.008;2023-10-19T17:20:36;98566.78;;;20.58;77.24
13974;BME280;7060;43.770;4.008;2023-10-19T17:23:08;98526.22;;;20.37;77.74
13974;BME280;7060;43.770;4.008;2023-10-19T17:25:37;98549.63;;;20.48;78.08
13974;BME280;7060;43.770;4.008;2023-10-19T17:28:07;98561.00;;;20.45;78.27
13974;BME280;7060;43.770;4.008;2023-10-19T17:30:36;98545.75;;;20.39;78.05
13974;BME280;7060;43.770;4.008;2023-10-19T17:33:07;98548.78;;;20.42;78.57
13974;BME280;7060;43.770;4.008;2023-10-19T17:35:40;98545.75;;;20.39;78.85
13974;BME280;7060;43.770;4.008;2023-10-19T17:38:10;98495.31;;;20.01;78.84
13974;BME280;7060;43.770;4.008;2023-10-19T17:40:39;98541.38;;;20.27;79.40
13974;BME280;7060;43.770;4.008;2023-10-19T17:43:08;98542.41;;;20.21;79.82
13974;BME280;7060;43.770;4.008;2023-10-19T17:45:44;98529.06;;;20.20;79.90
13974;BME280;7060;43.770;4.008;2023-10-19T17:48:13;98511.69;;;20.16;80.10
13974;BME280;7060;43.770;4.008;2023-10-19T17:50:43;98517.91;;;20.16;79.90
13974;BME280;7060;43.770;4.008;2023-10-19T17:53:12;98515.72;;;20.13;80.08
13974;BME280;7060;43.770;4.008;2023-10-19T17:55:41;98459.09;;;19.75;80.40
13974;BME280;7060;43.770;4.008;2023-10-19T17:58:10;98511.91;;;20.09;80.57
13974;BME280;7060;43.770;4.008;2023-10-19T18:00:40;98506.47;;;20.04;80.80
13974;BME280;7060;43.770;4.008;2023-10-19T18:03:09;98420.38;;;19.47;81.34
13974;BME280;7060;43.770;4.008;2023-10-19T18:05:45;98434.25;;;19.56;81.01
13974;BME280;7060;43.770;4.008;2023-10-19T18:08:15;98503.13;;;19.92;81.75
13974;BME280;7060;43.770;4.008;2023-10-19T18:10:44;98456.81;;;19.61;81.58
13974;BME280;7060;43.770;4.008;2023-10-19T18:13:14;98505.81;;;19.92;81.61
13974;BME280;7060;43.770;4.008;2023-10-19T18:15:43;98515.34;;;19.94;81.69
13974;BME280;7060;43.770;4.008;2023-10-19T18:18:24;98515.09;;;19.96;81.41
13974;BME280;7060;43.770;4.008;2023-10-19T18:27:57;98503.84;;;19.77;82.66
13974;BME280;7060;43.770;4.008;2023-10-19T18:30:27;98493.81;;;19.78;82.76
13974;BME280;7060;43.770;4.008;2023-10-19T18:32:56;98461.16;;;19.63;82.58
13974;BME280;7060;43.770;4.008;2023-10-19T18:35:25;98491.63;;;19.80;82.61
13974;BME280;7060;43.770;4.008;2023-10-19T18:37:54;98457.41;;;19.69;82.77
13974;BME280;7060;43.770;4.008;2023-10-19T18:40:23;98478.06;;;19.80;82.84
13974;BME280;7060;43.770;4.008;2023-10-19T18:43:02;98337.84;;;18.91;82.40
13974;BME280;7060;43.770;4.008;2023-10-19T18:45:31;98433.44;;;19.50;82.91
13974;BME280;7060;43.770;4.008;2023-10-19T18:48:00;98460.97;;;19.74;82.91
13974;BME280;7060;43.770;4.008;2023-10-19T18:50:29;98441.13;;;19.69;82.97